createdAt,value
2023-04-04T00:00:41.444Z,3.97
2023-04-04T00:03:09.276Z,5.67
2023-04-04T00:05:36.806Z,3.83
2023-04-04T00:08:04.692Z,2.23
2023-04-04T00:10:32.210Z,3.90
2023-04-04T00:12:59.865Z,3.70
2023-04-04T00:15:27.362Z,3.67
2023-04-04T00:17:54.924Z,2.80
2023-04-04T00:20:22.492Z,4.53
2023-04-04T00:22:49.976Z,2.27
2023-04-04T00:25:17.480Z,3.37
2023-04-04T00:27:45.187Z,5.87
2023-04-04T00:30:13.387Z,3.43
2023-04-04T00:32:41.390Z,3.13
2023-04-04T00:35:09.156Z,4.17
2023-04-04T00:37:37.074Z,2.83
2023-04-04T00:40:05.276Z,8.27
2023-04-04T00:42:34.821Z,2.07
2023-04-04T00:45:02.700Z,2.93
2023-04-04T00:47:31.633Z,4.07
2023-04-04T00:49:59.251Z,3.63
2023-04-04T00:52:27.101Z,2.50
2023-04-04T00:54:57.832Z,2.13
2023-04-04T00:57:25.724Z,5.50
2023-04-04T00:59:53.276Z,3.70
2023-04-04T01:02:21.410Z,3.43
2023-04-04T01:04:48.902Z,2.90
2023-04-04T01:07:16.682Z,4.30
2023-04-04T01:09:44.765Z,5.10
2023-04-04T01:12:12.682Z,2.93
2023-04-04T01:14:40.497Z,4.57
2023-04-04T01:17:08.361Z,4.20
2023-04-04T01:19:56.674Z,3.47
2023-04-04T01:22:24.686Z,1.57
2023-04-04T01:24:55.429Z,3.03
2023-04-04T01:27:23.675Z,1.93
2023-04-04T01:29:56.711Z,3.47
2023-04-04T01:32:43.969Z,3.83
2023-04-04T01:35:43.786Z,3.90
2023-04-04T01:38:27.468Z,3.50
2023-04-04T01:41:03.765Z,2.22
2023-04-04T01:43:33.648Z,2.53
2023-04-04T01:46:03.340Z,3.57
2023-04-04T01:48:31.017Z,5.47
2023-04-04T01:51:03.636Z,3.27
2023-04-04T01:53:31.869Z,2.53
2023-04-04T01:55:59.524Z,3.50
2023-04-04T01:58:27.348Z,4.50
2023-04-04T02:00:54.932Z,4.50
2023-04-04T02:03:22.671Z,2.30
2023-04-04T02:05:50.175Z,4.27
2023-04-04T02:08:17.841Z,3.27
2023-04-04T02:10:51.538Z,2.70
2023-04-04T02:13:19.898Z,5.67
2023-04-04T02:15:51.165Z,3.37
2023-04-04T02:18:20.129Z,4.43
2023-04-04T02:20:54.572Z,4.53
2023-04-04T02:23:22.051Z,6.50
2023-04-04T02:25:52.655Z,3.60
2023-04-04T02:28:20.548Z,3.30
2023-04-04T02:30:49.445Z,4.00
2023-04-04T02:33:17.175Z,3.50
2023-04-04T02:35:45.172Z,2.17
2023-04-04T02:38:12.647Z,3.97
2023-04-04T02:40:46.174Z,3.88
2023-04-04T02:43:13.940Z,8.50
2023-04-04T02:45:42.359Z,2.13
2023-04-04T02:48:21.314Z,3.93
2023-04-04T02:50:51.580Z,4.37
2023-04-04T02:53:19.091Z,4.33
2023-04-04T02:55:49.509Z,4.50
2023-04-04T02:58:17.238Z,3.77
2023-04-04T03:00:47.090Z,3.23
2023-04-04T03:03:14.934Z,6.57
2023-04-04T03:05:45.582Z,2.67
2023-04-04T03:08:13.107Z,4.63
2023-04-04T03:10:40.803Z,2.33
2023-04-04T03:13:08.602Z,2.87
2023-04-04T03:15:36.418Z,4.40
2023-04-04T03:18:04.157Z,2.27
2023-04-04T03:20:33.679Z,3.20
2023-04-04T03:23:01.159Z,2.13
2023-04-04T03:25:28.869Z,2.50
2023-04-04T03:27:56.499Z,2.57
2023-04-04T03:30:27.032Z,1.53
2023-04-04T03:32:55.086Z,5.13
2023-04-04T03:35:22.749Z,3.47
2023-04-04T03:37:50.718Z,3.43
2023-04-04T03:40:18.334Z,3.80
2023-04-04T03:42:45.811Z,4.80
2023-04-04T03:45:15.837Z,3.83
2023-04-04T03:47:44.209Z,4.73
2023-04-04T03:50:12.326Z,8.50
2023-04-04T03:52:47.428Z,6.00
2023-04-04T03:55:15.181Z,6.70
2023-04-04T03:57:42.802Z,7.13
2023-04-04T04:00:13.095Z,6.50
2023-04-04T04:02:41.098Z,5.13
2023-04-04T04:05:10.448Z,7.23
2023-04-04T04:07:38.025Z,3.43
2023-04-04T04:10:06.391Z,4.80
2023-04-04T04:12:33.865Z,6.27
2023-04-04T04:15:01.858Z,4.67
2023-04-04T04:17:32.685Z,4.17
2023-04-04T04:20:01.055Z,4.80
2023-04-04T04:22:37.867Z,3.30
2023-04-04T04:25:05.965Z,4.57
2023-04-04T04:27:33.981Z,6.03
2023-04-04T04:30:01.513Z,6.80
2023-04-04T04:32:34.681Z,3.23
2023-04-04T04:35:02.303Z,3.07
2023-04-04T04:37:33.422Z,3.73
2023-04-04T04:40:02.242Z,3.33
2023-04-04T04:42:43.174Z,4.77
2023-04-04T04:45:11.252Z,2.83
2023-04-04T04:47:41.974Z,3.60
2023-04-04T04:50:11.385Z,5.40
2023-04-04T04:52:44.469Z,3.85
2023-04-04T04:55:13.978Z,4.50
2023-04-04T04:57:48.283Z,5.43
2023-04-04T05:00:22.284Z,5.40
2023-04-04T05:02:51.061Z,5.50
2023-04-04T05:05:28.082Z,3.87
2023-04-04T05:08:04.161Z,5.43
2023-04-04T05:10:32.078Z,4.60
2023-04-04T05:13:00.748Z,4.30
2023-04-04T05:15:33.090Z,5.40
2023-04-04T05:18:00.651Z,4.60
2023-04-04T05:20:28.356Z,3.57
2023-04-04T05:22:59.009Z,8.33
2023-04-04T05:25:34.590Z,2.87
2023-04-04T05:28:03.803Z,5.37
2023-04-04T05:30:32.738Z,7.73
2023-04-04T05:33:29.545Z,5.57
2023-04-04T05:36:05.404Z,6.23
2023-04-04T05:38:36.104Z,5.80
2023-04-04T05:41:04.221Z,3.97
2023-04-04T05:43:31.872Z,7.93
2023-04-04T05:46:04.692Z,5.37
2023-04-04T05:48:38.444Z,9.35
2023-04-04T05:51:06.028Z,4.97
2023-04-04T05:53:56.177Z,5.17
2023-04-04T05:56:29.128Z,7.05
2023-04-04T05:58:58.790Z,4.20
2023-04-04T06:01:29.463Z,6.47
2023-04-04T06:04:00.695Z,4.73
2023-04-04T06:06:28.601Z,7.40
2023-04-04T06:08:56.247Z,9.63
2023-04-04T06:11:23.905Z,6.20
2023-04-04T06:13:55.079Z,8.83
2023-04-04T06:16:24.787Z,9.03
2023-04-04T06:18:52.343Z,9.33
2023-04-04T06:21:20.370Z,6.70
2023-04-04T06:23:47.856Z,4.87
2023-04-04T06:26:15.361Z,3.70
2023-04-04T06:28:49.391Z,7.83
2023-04-04T06:31:19.762Z,4.50
2023-04-04T06:33:48.964Z,8.87
2023-04-04T06:36:18.862Z,6.77
2023-04-04T06:38:47.625Z,7.63
2023-04-04T06:41:21.401Z,5.50
2023-04-04T06:43:51.115Z,7.47
2023-04-04T06:46:18.974Z,5.50
2023-04-04T06:48:46.521Z,6.60
2023-04-04T06:51:14.004Z,6.03
2023-04-04T06:53:45.741Z,7.90
2023-04-04T06:56:13.572Z,5.50
2023-04-04T06:58:41.114Z,6.33
2023-04-04T07:01:08.798Z,6.20
2023-04-04T07:03:36.413Z,6.77
2023-04-04T07:06:04.651Z,4.77
2023-04-04T07:08:36.881Z,4.37
2023-04-04T07:11:06.216Z,6.03
2023-04-04T07:13:35.102Z,6.07
2023-04-04T07:16:02.683Z,4.27
2023-04-04T07:18:30.391Z,4.87
2023-04-04T07:20:58.436Z,9.07
2023-04-04T07:23:26.001Z,5.47
2023-04-04T07:25:53.891Z,7.33
2023-04-04T07:28:21.828Z,3.93
2023-04-04T07:30:49.305Z,3.17
2023-04-04T07:33:17.053Z,4.40
2023-04-04T07:35:44.564Z,4.90
2023-04-04T07:38:12.508Z,5.23
2023-04-04T07:40:41.011Z,5.60
2023-04-04T07:43:08.700Z,5.03
2023-04-04T07:45:36.424Z,3.60
2023-04-04T07:48:04.133Z,3.33
2023-04-04T07:50:31.971Z,3.37
2023-04-04T07:52:59.537Z,3.13
2023-04-04T07:55:27.167Z,3.50
2023-04-04T07:57:54.751Z,4.37
2023-04-04T08:00:25.700Z,4.17
2023-04-04T08:02:55.198Z,4.40
2023-04-04T08:05:23.473Z,6.50
2023-04-04T08:07:51.328Z,3.37
2023-04-04T08:10:19.161Z,3.63
2023-04-04T08:12:46.998Z,4.77
2023-04-04T08:15:14.613Z,3.83
2023-04-04T08:17:43.581Z,4.43
2023-04-04T08:20:12.281Z,5.23
2023-04-04T08:22:42.443Z,4.17
2023-04-04T08:25:11.179Z,3.27
2023-04-04T08:27:44.024Z,4.47
2023-04-04T08:30:14.174Z,6.07
2023-04-04T08:32:42.428Z,4.27
2023-04-04T08:35:10.023Z,4.10
2023-04-04T08:37:38.341Z,3.13
2023-04-04T08:40:07.086Z,5.00
2023-04-04T08:42:36.590Z,5.67
2023-04-04T08:45:05.514Z,3.30
2023-04-04T08:47:35.946Z,5.10
2023-04-04T08:50:08.448Z,3.97
2023-04-04T08:52:36.823Z,5.93
2023-04-04T08:55:09.824Z,4.53
2023-04-04T08:57:37.925Z,3.53
2023-04-04T09:00:07.400Z,5.40
2023-04-04T09:02:50.007Z,5.07
2023-04-04T09:05:18.232Z,4.17
2023-04-04T09:07:46.240Z,3.77
2023-04-04T09:10:13.845Z,4.07
2023-04-04T09:12:47.465Z,4.80
2023-04-04T09:15:15.891Z,4.50
2023-04-04T09:17:43.993Z,5.87
2023-04-04T09:20:37.036Z,3.60
2023-04-04T09:23:13.633Z,4.63
2023-04-04T09:28:26.033Z,5.77
2023-04-04T09:30:53.866Z,4.17
2023-04-04T09:33:24.102Z,3.63
2023-04-04T09:36:12.900Z,7.43
2023-04-04T09:38:45.615Z,5.63
2023-04-04T09:41:18.726Z,4.60
2023-04-04T09:43:46.742Z,4.60
2023-04-04T09:46:15.846Z,4.27
2023-04-04T09:48:53.121Z,4.60
2023-04-04T09:51:21.400Z,3.87
2023-04-04T09:53:50.007Z,8.23
2023-04-04T09:56:18.949Z,4.67
2023-04-04T09:59:02.392Z,6.30
2023-04-04T10:01:31.366Z,4.73
2023-04-04T10:03:59.214Z,4.20
2023-04-04T10:06:27.416Z,4.47
2023-04-04T10:08:58.302Z,2.80
2023-04-04T10:11:34.073Z,5.50
2023-04-04T10:14:03.832Z,5.87
2023-04-04T10:16:36.999Z,3.63
2023-04-04T10:19:07.852Z,7.63
2023-04-04T10:21:36.867Z,3.07
2023-04-04T10:24:09.740Z,4.40
2023-04-04T10:26:37.720Z,4.00
2023-04-04T10:29:05.810Z,5.87
2023-04-04T10:31:38.131Z,6.40
2023-04-04T10:34:25.152Z,5.93
2023-04-04T10:37:03.976Z,4.20
2023-04-04T10:40:01.905Z,4.40
2023-04-04T10:42:38.715Z,4.50
2023-04-04T10:45:19.772Z,5.33
2023-04-04T10:47:49.219Z,3.60
2023-04-04T10:50:16.945Z,3.53
2023-04-04T10:52:45.710Z,4.97
2023-04-04T10:55:15.758Z,3.83
2023-04-04T10:57:51.860Z,3.67
2023-04-04T11:00:23.238Z,3.73
2023-04-04T11:02:59.868Z,3.70
2023-04-04T11:05:31.816Z,6.00
2023-04-04T11:08:08.565Z,4.37
2023-04-04T11:10:41.627Z,7.00
2023-04-04T11:13:29.045Z,5.23
2023-04-04T11:16:01.820Z,5.83
2023-04-04T11:18:33.716Z,4.27
2023-04-04T11:21:10.329Z,4.73
2023-04-04T11:23:49.862Z,4.90
2023-04-04T11:26:28.374Z,4.30
2023-04-04T11:29:04.449Z,4.33
2023-04-04T11:31:40.200Z,3.67
2023-04-04T11:34:13.600Z,5.87
2023-04-04T11:36:42.930Z,4.35
2023-04-04T11:39:16.713Z,4.53
2023-04-04T11:41:54.386Z,5.30
2023-04-04T11:44:23.868Z,5.00
2023-04-04T11:47:12.077Z,4.60
2023-04-04T11:49:43.844Z,3.37
2023-04-04T11:52:18.837Z,6.53
2023-04-04T11:54:47.990Z,3.90
2023-04-04T11:57:19.766Z,4.33
2023-04-04T11:59:49.741Z,2.97
2023-04-04T12:02:23.388Z,3.33
2023-04-04T12:04:52.009Z,6.88
2023-04-04T12:07:20.084Z,6.60
2023-04-04T12:09:48.393Z,6.67
2023-04-04T12:12:16.499Z,4.67
2023-04-04T12:14:44.513Z,8.57
2023-04-04T12:17:12.375Z,4.27
2023-04-04T12:19:41.386Z,3.40
2023-04-04T12:22:10.015Z,7.30
2023-04-04T12:24:37.918Z,3.87
2023-04-04T12:27:06.253Z,4.50
2023-04-04T12:29:37.366Z,4.70
2023-04-04T12:32:06.422Z,5.93
2023-04-04T12:34:36.089Z,5.00
2023-04-04T12:37:04.422Z,4.40
2023-04-04T12:39:32.145Z,5.10
2023-04-04T12:42:03.634Z,3.20
2023-04-04T12:44:34.260Z,4.90
2023-04-04T12:47:05.017Z,4.43
2023-04-04T12:49:42.614Z,3.57
2023-04-04T12:52:22.384Z,3.50
2023-04-04T12:55:06.654Z,5.13
2023-04-04T12:57:38.788Z,4.53
2023-04-04T13:00:08.900Z,3.70
2023-04-04T13:02:39.106Z,3.27
2023-04-04T13:05:07.551Z,4.50
2023-04-04T13:10:32.185Z,6.20
2023-04-04T13:13:01.614Z,4.97
2023-04-04T13:15:51.824Z,4.30
2023-04-04T13:18:23.411Z,4.90
2023-04-04T13:20:55.020Z,5.83
2023-04-04T13:23:23.136Z,7.67
2023-04-04T13:25:51.262Z,5.40
2023-04-04T13:28:18.760Z,5.13
2023-04-04T13:30:49.788Z,5.07
2023-04-04T13:33:18.378Z,4.17
2023-04-04T13:35:46.643Z,4.07
2023-04-04T13:38:14.324Z,4.00
2023-04-04T13:40:41.894Z,5.47
2023-04-04T13:43:11.496Z,4.27
2023-04-04T13:45:39.476Z,4.07
2023-04-04T13:48:07.240Z,3.93
2023-04-04T13:50:40.833Z,6.23
2023-04-04T13:53:10.278Z,5.40
2023-04-04T13:55:41.652Z,4.23
2023-04-04T13:58:19.907Z,8.53
2023-04-04T14:00:50.154Z,3.90
2023-04-04T14:03:17.920Z,6.53
2023-04-04T14:05:45.720Z,6.17
2023-04-04T14:08:14.443Z,4.83
2023-04-04T14:10:42.117Z,4.47
2023-04-04T14:13:09.764Z,5.77
2023-04-04T14:15:37.290Z,4.97
2023-04-04T14:18:04.932Z,4.87
2023-04-04T14:20:33.366Z,6.70
2023-04-04T14:23:01.513Z,4.47
2023-04-04T14:25:29.005Z,5.67
2023-04-04T14:27:56.511Z,3.83
2023-04-04T14:30:24.011Z,5.57
2023-04-04T14:32:51.953Z,5.87
2023-04-04T14:35:19.475Z,4.40
2023-04-04T14:37:47.014Z,6.53
2023-04-04T14:40:14.498Z,10.90
2023-04-04T14:42:42.004Z,5.73
2023-04-04T14:45:11.269Z,4.07
2023-04-04T14:47:38.845Z,4.27
2023-04-04T14:50:08.130Z,3.77
2023-04-04T14:52:36.264Z,4.43
2023-04-04T14:55:04.172Z,4.33
2023-04-04T14:57:35.560Z,6.27
2023-04-04T15:00:07.814Z,6.50
2023-04-04T15:02:35.364Z,3.80
2023-04-04T15:05:03.671Z,5.40
2023-04-04T15:07:31.180Z,4.97
2023-04-04T15:09:58.665Z,4.50
2023-04-04T15:12:26.169Z,11.33
2023-04-04T15:14:53.947Z,6.13
2023-04-04T15:17:21.449Z,5.20
2023-04-04T15:19:48.933Z,5.23
2023-04-04T15:22:16.454Z,11.20
2023-04-04T15:24:44.216Z,10.10
2023-04-04T15:27:11.808Z,9.13
2023-04-04T15:29:39.313Z,5.90
2023-04-04T15:32:06.896Z,7.73
2023-04-04T15:34:34.411Z,7.13
2023-04-04T15:37:04.213Z,5.10
2023-04-04T15:39:39.768Z,6.27
2023-04-04T15:42:13.661Z,6.57
2023-04-04T15:44:41.219Z,4.33
2023-04-04T15:47:08.775Z,7.13
2023-04-04T15:49:36.317Z,5.17
2023-04-04T15:52:03.972Z,5.23
2023-04-04T15:54:31.851Z,4.23
2023-04-04T15:56:59.406Z,6.73
2023-04-04T15:59:27.174Z,4.93
2023-04-04T16:01:54.830Z,4.27
2023-04-04T16:04:22.368Z,4.33
2023-04-04T16:06:49.900Z,6.13
2023-04-04T16:09:17.391Z,7.37
2023-04-04T16:11:44.902Z,6.33
2023-04-04T16:14:13.494Z,6.10
2023-04-04T16:16:41.248Z,4.87
2023-04-04T16:19:08.788Z,6.53
2023-04-04T16:21:36.394Z,5.40
2023-04-04T16:24:05.043Z,5.20
2023-04-04T16:26:32.609Z,5.57
2023-04-04T16:29:03.071Z,4.60
2023-04-04T16:31:31.987Z,6.30
2023-04-04T16:33:59.643Z,4.60
2023-04-04T16:36:27.402Z,4.97
2023-04-04T16:38:55.031Z,3.43
2023-04-04T16:41:22.534Z,6.10
2023-04-04T16:43:52.541Z,5.73
2023-04-04T16:46:20.193Z,4.20
2023-04-04T16:48:47.714Z,4.40
2023-04-04T16:51:15.276Z,5.37
2023-04-04T16:53:42.775Z,4.40
2023-04-04T16:56:10.279Z,5.40
2023-04-04T16:58:37.802Z,5.97
2023-04-04T17:01:05.433Z,14.13
2023-04-04T17:03:33.270Z,7.17
2023-04-04T17:06:01.602Z,5.60
2023-04-04T17:08:29.154Z,8.63
2023-04-04T17:10:56.821Z,6.17
2023-04-04T17:13:24.366Z,5.97
2023-04-04T17:15:52.636Z,6.87
2023-04-04T17:18:20.315Z,4.63
2023-04-04T17:20:48.939Z,6.53
2023-04-04T17:23:16.861Z,8.07
2023-04-04T17:25:44.361Z,6.23
2023-04-04T17:28:11.845Z,4.87
2023-04-04T17:30:39.594Z,6.57
2023-04-04T17:33:08.000Z,5.27
2023-04-04T17:35:35.956Z,7.40
2023-04-04T17:38:03.499Z,5.43
2023-04-04T17:40:31.074Z,5.93
2023-04-04T17:42:58.576Z,5.67
2023-04-04T17:45:27.508Z,8.10
2023-04-04T17:47:55.086Z,8.87
2023-04-04T17:50:22.566Z,10.50
2023-04-04T17:52:50.078Z,15.27
2023-04-04T17:55:17.854Z,10.43
2023-04-04T17:57:46.364Z,6.87
2023-04-04T18:00:15.501Z,6.27
2023-04-04T18:02:43.063Z,5.00
2023-04-04T18:05:11.407Z,6.87
2023-04-04T18:07:39.782Z,6.10
2023-04-04T18:10:08.233Z,6.30
2023-04-04T18:12:36.271Z,5.73
2023-04-04T18:15:04.784Z,6.33
2023-04-04T18:17:33.230Z,13.63
2023-04-04T18:20:03.458Z,10.50
2023-04-04T18:22:31.514Z,10.20
2023-04-04T18:24:59.027Z,7.90
2023-04-04T18:27:26.546Z,6.50
2023-04-04T18:29:54.012Z,9.60
2023-04-04T18:32:25.541Z,7.63
2023-04-04T18:34:53.104Z,8.17
2023-04-04T18:37:20.575Z,4.77
2023-04-04T18:39:48.083Z,8.63
2023-04-04T18:42:16.277Z,6.80
2023-04-04T18:44:43.798Z,7.50
2023-04-04T18:47:11.689Z,5.50
2023-04-04T18:49:39.323Z,5.80
2023-04-04T18:52:06.996Z,6.77
2023-04-04T18:54:34.491Z,5.00
2023-04-04T18:57:02.007Z,6.83
2023-04-04T18:59:30.703Z,5.30
2023-04-04T19:02:00.717Z,5.80
2023-04-04T19:04:30.025Z,8.23
2023-04-04T19:07:01.034Z,8.20
2023-04-04T19:09:31.502Z,10.87
2023-04-04T19:12:00.170Z,9.33
2023-04-04T19:14:27.720Z,11.20
2023-04-04T19:16:55.317Z,6.30
2023-04-04T19:19:22.854Z,8.17
2023-04-04T19:21:50.618Z,5.47
2023-04-04T19:24:18.107Z,8.03
2023-04-04T19:26:45.665Z,5.77
2023-04-04T19:29:20.972Z,6.47
2023-04-04T19:31:48.748Z,5.80
2023-04-04T19:34:17.351Z,6.53
2023-04-04T19:36:44.831Z,6.60
2023-04-04T19:39:12.350Z,5.73
2023-04-04T19:41:41.926Z,6.20
2023-04-04T19:44:20.287Z,6.83
2023-04-04T19:46:48.278Z,6.47
2023-04-04T19:49:16.673Z,6.43
2023-04-04T19:51:56.862Z,7.87
2023-04-04T19:54:27.149Z,9.43
2023-04-04T19:57:02.010Z,16.40
2023-04-04T20:00:03.810Z,14.77
2023-04-04T20:02:34.187Z,12.45
2023-04-04T20:05:02.540Z,18.13
2023-04-04T20:07:30.071Z,14.30
2023-04-04T20:09:57.903Z,11.87
2023-04-04T20:12:26.309Z,14.77
2023-04-04T20:14:58.826Z,14.90
2023-04-04T20:17:26.372Z,16.50
2023-04-04T20:19:53.884Z,18.93
2023-04-04T20:22:23.171Z,18.20
2023-04-04T20:24:50.847Z,15.00
2023-04-04T20:27:24.252Z,11.97
2023-04-04T20:29:54.188Z,12.38
2023-04-04T20:32:21.708Z,10.50
2023-04-04T20:34:50.400Z,11.03
2023-04-04T20:37:24.826Z,10.70
2023-04-04T20:40:00.418Z,9.67
2023-04-04T20:42:32.379Z,8.97
2023-04-04T20:45:00.867Z,8.40
2023-04-04T20:47:45.546Z,10.40
2023-04-04T20:50:20.385Z,9.30
2023-04-04T20:52:56.731Z,16.70
2023-04-04T20:55:29.813Z,11.23
2023-04-04T20:58:08.920Z,10.98
2023-04-04T21:00:42.105Z,10.17
2023-04-04T21:03:32.871Z,12.57
2023-04-04T21:06:13.333Z,13.07
2023-04-04T21:08:51.261Z,9.20
2023-04-04T21:11:28.889Z,10.87
2023-04-04T21:13:57.089Z,8.73
2023-04-04T21:16:27.243Z,10.60
2023-04-04T21:18:59.884Z,8.60
2023-04-04T21:21:28.436Z,7.13
2023-04-04T21:24:00.900Z,7.53
2023-04-04T21:26:40.724Z,6.93
2023-04-04T21:29:22.839Z,11.67
2023-04-04T21:31:53.534Z,10.80
2023-04-04T21:34:27.252Z,8.83
2023-04-04T21:36:59.850Z,9.43
2023-04-04T21:39:29.814Z,8.63
2023-04-04T21:42:06.018Z,9.10
2023-04-04T21:44:35.656Z,11.10
2023-04-04T21:47:03.163Z,8.93
2023-04-04T21:49:30.686Z,8.67
2023-04-04T21:51:58.197Z,7.83
2023-04-04T21:54:25.854Z,10.03
2023-04-04T21:56:53.395Z,7.97
2023-04-04T21:59:20.989Z,12.37
2023-04-04T22:01:50.223Z,11.80
2023-04-04T22:04:17.775Z,10.83
2023-04-04T22:06:45.347Z,13.67
2023-04-04T22:09:12.880Z,9.33
2023-04-04T22:11:44.244Z,8.50
2023-04-04T22:14:17.137Z,9.13
2023-04-04T22:16:44.792Z,14.17
2023-04-04T22:19:18.594Z,8.80
2023-04-04T22:21:47.047Z,9.32
2023-04-04T22:24:15.521Z,16.97
2023-04-04T22:26:45.550Z,12.53
2023-04-04T22:29:13.142Z,14.20
2023-04-04T22:31:40.923Z,10.97
2023-04-04T22:34:08.960Z,8.87
2023-04-04T22:36:38.581Z,7.63
2023-04-04T22:39:06.247Z,6.93
2023-04-04T22:41:33.736Z,8.77
2023-04-04T22:44:01.213Z,12.60
2023-04-04T22:46:29.447Z,8.03
2023-04-04T22:49:06.035Z,6.70
2023-04-04T22:51:43.695Z,11.10
2023-04-04T22:54:16.138Z,8.87
2023-04-04T22:56:44.115Z,10.83
2023-04-04T22:59:12.100Z,9.47
2023-04-04T23:01:40.058Z,8.80
2023-04-04T23:04:07.906Z,11.10
2023-04-04T23:06:36.046Z,9.10
2023-04-04T23:09:03.971Z,8.70
2023-04-04T23:11:31.623Z,9.57
2023-04-04T23:14:00.275Z,9.17
2023-04-04T23:16:28.666Z,9.60
2023-04-04T23:18:56.161Z,7.50
2023-04-04T23:21:24.855Z,10.63
2023-04-04T23:23:52.393Z,8.77
2023-04-04T23:26:20.062Z,9.13
2023-04-04T23:28:47.781Z,8.63
2023-04-04T23:31:16.100Z,9.23
2023-04-04T23:33:43.841Z,9.20
2023-04-04T23:36:11.618Z,7.87
2023-04-04T23:38:39.149Z,12.47
2023-04-04T23:41:07.414Z,9.43
2023-04-04T23:43:35.914Z,9.03
2023-04-04T23:46:03.779Z,9.03
2023-04-04T23:48:32.184Z,10.23
2023-04-04T23:51:01.673Z,8.37
2023-04-04T23:53:29.652Z,6.93
2023-04-04T23:55:57.178Z,9.73
2023-04-04T23:58:24.752Z,7.80
